Time;durP1;ratioP1;P1;durP2;ratioP2;P2;SDS_P1;SDS_P2;PMS_P1;PMS_P2;Temp;Humidity;BMP_temperature;BMP_pressure;BME280_temperature;BME280_humidity;BME280_pressure;Samples;Min_cycle;Max_cycle;Signal;HPM_P1;HPM_P2
2023/08/04 00:01:25;;;;;;;8.55;2.20;;;15.70;99.90;;;;;;5117603;27;20043;-65
2023/08/04 00:03:52;;;;;;;8.45;2.38;;;15.70;99.90;;;;;;5118916;27;20088;-65
2023/08/04 00:06:18;;;;;;;6.22;2.20;;;15.70;99.90;;;;;;5115945;27;20397;-64
2023/08/04 00:08:43;;;;;;;7.47;2.30;;;15.70;99.90;;;;;;5114500;27;20157;-64
2023/08/04 00:11:09;;;;;;;8.43;2.40;;;15.70;99.90;;;;;;5113489;27;20035;-65
2023/08/04 00:13:34;;;;;;;6.32;2.45;;;15.70;99.90;;;;;;5095472;27;20410;-65
2023/08/04 00:16:07;;;;;;;8.38;2.20;;;15.70;99.90;;;;;;5130968;27;20451;-64
2023/08/04 00:18:33;;;;;;;7.93;2.00;;;15.70;99.90;;;;;;5113320;27;20085;-64
2023/08/04 00:20:59;;;;;;;4.63;1.90;;;15.70;99.90;;;;;;5112296;27;20038;-64
2023/08/04 00:23:25;;;;;;;8.23;2.17;;;15.70;99.90;;;;;;5116537;27;20043;-65
2023/08/04 00:25:51;;;;;;;7.57;1.98;;;15.70;99.90;;;;;;5133496;27;20038;-65
2023/08/04 00:28:16;;;;;;;5.65;1.77;;;15.70;99.90;;;;;;5130726;27;20095;-65
2023/08/04 00:30:42;;;;;;;6.20;1.88;;;15.70;99.90;;;;;;5112666;27;20497;-65
2023/08/04 00:33:08;;;;;;;7.88;1.80;;;15.70;99.90;;;;;;5140508;27;20122;-64
2023/08/04 00:35:33;;;;;;;6.53;1.98;;;15.70;99.90;;;;;;5132997;27;20496;-64
2023/08/04 00:37:59;;;;;;;5.22;1.83;;;15.70;99.90;;;;;;5130691;27;20461;-64
2023/08/04 00:40:25;;;;;;;7.10;2.05;;;15.70;99.90;;;;;;5113933;27;20130;-64
2023/08/04 00:42:50;;;;;;;5.75;1.90;;;15.70;99.90;;;;;;5122625;27;20031;-64
2023/08/04 00:45:16;;;;;;;6.60;1.90;;;15.70;99.90;;;;;;5112476;27;20038;-65
2023/08/04 00:47:42;;;;;;;4.43;1.75;;;15.70;99.90;;;;;;5112317;27;20039;-65
2023/08/04 00:50:09;;;;;;;9.50;1.90;;;15.70;99.90;;;;;;5114983;27;20397;-65
2023/08/04 00:52:37;;;;;;;5.55;1.80;;;15.70;99.90;;;;;;5097598;27;20050;-65
2023/08/04 00:55:03;;;;;;;6.47;1.90;;;15.60;99.90;;;;;;5118722;27;20042;-65
2023/08/04 00:57:28;;;;;;;6.20;1.65;;;15.60;99.90;;;;;;5121277;27;20043;-65
2023/08/04 00:59:55;;;;;;;5.85;1.60;;;15.50;99.90;;;;;;5112106;27;20077;-64
2023/08/04 01:02:21;;;;;;;5.55;1.58;;;15.50;99.90;;;;;;5136396;27;20073;-65
2023/08/04 01:04:47;;;;;;;5.22;1.40;;;15.50;99.90;;;;;;5116184;27;20063;-64
2023/08/04 01:07:25;;;;;;;5.43;1.60;;;15.40;99.90;;;;;;5123209;27;20091;-64
2023/08/04 01:10:40;;;;;;;6.32;1.80;;;15.40;99.90;;;;;;5136581;27;20034;-65
2023/08/04 01:13:06;;;;;;;7.65;2.00;;;15.30;99.90;;;;;;5145993;27;20031;-64
2023/08/04 01:15:33;;;;;;;6.85;1.75;;;15.20;99.90;;;;;;5118494;27;20477;-65
2023/08/04 01:17:59;;;;;;;6.50;1.50;;;15.20;99.90;;;;;;5119638;27;20034;-64
2023/08/04 01:20:26;;;;;;;5.43;1.60;;;15.20;99.90;;;;;;5116488;27;20043;-64
2023/08/04 01:22:52;;;;;;;3.78;1.63;;;15.10;99.90;;;;;;5135547;27;20141;-65
2023/08/04 01:25:32;;;;;;;4.45;1.70;;;15.10;99.90;;;;;;5136343;27;20667;-64
2023/08/04 01:28:00;;;;;;;4.28;1.60;;;15.10;99.90;;;;;;5126188;27;20046;-64
2023/08/04 01:30:28;;;;;;;8.20;2.10;;;15.00;99.90;;;;;;5125150;27;21193;-64
2023/08/04 01:32:54;;;;;;;5.75;1.83;;;15.00;99.90;;;;;;5137113;27;20455;-65
2023/08/04 01:35:20;;;;;;;8.38;1.95;;;15.00;99.90;;;;;;5144693;27;20115;-64
2023/08/04 01:37:45;;;;;;;4.75;1.63;;;15.00;99.90;;;;;;5136716;27;20038;-64
2023/08/04 01:40:12;;;;;;;7.20;2.10;;;15.00;99.90;;;;;;5133539;27;20087;-64
2023/08/04 01:42:39;;;;;;;7.65;1.88;;;15.00;99.90;;;;;;5120920;27;20055;-64
2023/08/04 01:45:05;;;;;;;6.72;1.90;;;15.00;99.90;;;;;;5125985;27;20088;-65
2023/08/04 01:47:30;;;;;;;4.93;1.85;;;15.00;99.90;;;;;;5121394;27;20035;-64
2023/08/04 01:49:56;;;;;;;4.55;1.75;;;15.00;99.90;;;;;;5124400;27;20442;-64
2023/08/04 01:52:22;;;;;;;7.38;2.40;;;14.90;99.90;;;;;;5135787;27;20545;-65
2023/08/04 01:54:48;;;;;;;5.90;1.50;;;15.00;99.90;;;;;;5150252;27;20034;-64
2023/08/04 01:57:13;;;;;;;7.80;1.75;;;15.00;99.90;;;;;;5119358;27;20039;-64
2023/08/04 01:59:39;;;;;;;7.95;2.03;;;15.00;99.90;;;;;;5136987;27;20106;-65
2023/08/04 02:02:05;;;;;;;5.45;1.45;;;14.90;99.90;;;;;;5133713;27;20046;-64
2023/08/04 02:04:30;;;;;;;3.70;1.60;;;15.00;99.90;;;;;;5120062;27;20038;-64
2023/08/04 02:06:56;;;;;;;5.72;1.40;;;14.90;99.90;;;;;;5127590;27;20055;-64
2023/08/04 02:09:22;;;;;;;4.43;1.77;;;15.00;99.90;;;;;;5123316;27;20077;-64
2023/08/04 02:11:48;;;;;;;6.57;1.50;;;14.90;99.90;;;;;;5128622;27;20043;-64
2023/08/04 02:14:16;;;;;;;4.55;1.45;;;14.90;99.90;;;;;;5122975;27;20047;-64
2023/08/04 02:16:41;;;;;;;4.78;2.00;;;14.90;99.90;;;;;;5115222;27;20111;-64
2023/08/04 02:19:09;;;;;;;6.55;2.15;;;15.00;99.90;;;;;;5122489;27;20043;-65
2023/08/04 02:21:35;;;;;;;4.40;1.80;;;14.90;99.90;;;;;;5150813;27;20537;-65
2023/08/04 02:24:02;;;;;;;4.22;1.70;;;15.00;99.90;;;;;;5121450;27;20070;-64
2023/08/04 02:26:28;;;;;;;5.60;1.85;;;15.00;99.90;;;;;;5125000;27;20125;-65
2023/08/04 02:28:54;;;;;;;5.60;1.85;;;15.00;99.90;;;;;;5132611;27;20487;-65
2023/08/04 02:31:22;;;;;;;5.13;1.70;;;15.00;99.90;;;;;;5115515;27;20123;-64
2023/08/04 02:33:47;;;;;;;5.47;1.90;;;15.00;99.90;;;;;;5118842;27;20446;-64
2023/08/04 02:36:14;;;;;;;6.20;1.60;;;14.90;99.90;;;;;;5121734;27;20031;-65
2023/08/04 02:38:39;;;;;;;3.10;1.65;;;15.00;99.90;;;;;;5120839;27;20096;-64
2023/08/04 02:41:05;;;;;;;5.38;1.60;;;15.00;99.90;;;;;;5125835;27;20047;-64
2023/08/04 02:43:31;;;;;;;3.58;1.40;;;14.90;99.90;;;;;;5121674;27;20477;-64
2023/08/04 02:45:57;;;;;;;3.63;1.50;;;15.00;99.90;;;;;;5121584;27;20115;-64
2023/08/04 02:48:23;;;;;;;3.00;1.50;;;15.00;99.90;;;;;;5119302;27;20094;-64
2023/08/04 02:51:21;;;;;;;4.50;1.38;;;15.00;99.90;;;;;;5119281;27;20041;-65
2023/08/04 02:53:47;;;;;;;5.32;1.50;;;15.00;99.90;;;;;;5031704;28;20048;-64
2023/08/04 02:56:14;;;;;;;2.60;1.60;;;15.00;99.90;;;;;;5030929;28;20075;-65
2023/08/04 02:58:42;;;;;;;5.40;1.65;;;15.00;99.90;;;;;;5031498;28;20419;-64
2023/08/04 03:01:08;;;;;;;4.22;1.70;;;15.10;99.90;;;;;;5031498;28;20129;-65
2023/08/04 03:03:34;;;;;;;2.90;1.60;;;15.00;99.90;;;;;;5030936;28;20460;-64
2023/08/04 03:06:01;;;;;;;5.03;1.67;;;15.00;99.90;;;;;;5031552;28;20519;-65
2023/08/04 03:08:27;;;;;;;5.50;2.65;;;15.00;99.90;;;;;;5013219;28;20047;-64
2023/08/04 03:10:53;;;;;;;4.22;1.70;;;15.00;99.90;;;;;;5031061;28;20041;-65
2023/08/04 03:13:18;;;;;;;3.15;1.60;;;15.00;99.90;;;;;;5031586;28;20033;-64
2023/08/04 03:15:44;;;;;;;3.47;1.58;;;14.90;99.90;;;;;;5031924;28;20131;-64
2023/08/04 03:18:10;;;;;;;2.78;1.30;;;14.90;99.90;;;;;;5031305;28;20088;-65
2023/08/04 03:20:39;;;;;;;3.35;1.60;;;14.90;99.90;;;;;;5031196;28;20036;-64
2023/08/04 03:23:06;;;;;;;3.28;1.77;;;14.90;99.90;;;;;;5030764;28;20049;-65
2023/08/04 03:25:33;;;;;;;3.83;1.70;;;14.90;99.90;;;;;;5031684;28;20416;-65
2023/08/04 03:27:59;;;;;;;3.55;1.70;;;14.90;99.90;;;;;;5032082;28;20053;-64
2023/08/04 03:30:25;;;;;;;4.95;1.63;;;14.90;99.90;;;;;;5140118;27;20443;-64
2023/08/04 03:32:50;;;;;;;2.90;1.80;;;14.90;99.90;;;;;;5119158;27;20054;-65
2023/08/04 03:35:16;;;;;;;4.75;2.25;;;14.90;99.90;;;;;;5120656;27;20070;-65
2023/08/04 03:37:41;;;;;;;2.85;1.92;;;14.90;99.90;;;;;;5132053;27;20049;-64
2023/08/04 03:40:08;;;;;;;2.85;1.90;;;14.90;99.90;;;;;;5123444;27;20086;-65
2023/08/04 03:42:38;;;;;;;7.22;2.25;;;14.90;99.90;;;;;;5149152;27;20038;-64
2023/08/04 03:45:08;;;;;;;5.63;2.10;;;15.00;99.90;;;;;;5129150;27;20061;-64
2023/08/04 03:47:34;;;;;;;4.85;2.15;;;14.90;99.90;;;;;;5115144;27;20049;-65
2023/08/04 03:50:01;;;;;;;4.25;2.03;;;15.00;99.90;;;;;;5098160;27;20043;-65
2023/08/04 03:52:27;;;;;;;4.18;1.90;;;15.00;99.90;;;;;;5113528;27;20823;-64
2023/08/04 03:54:52;;;;;;;6.70;2.20;;;14.90;99.90;;;;;;5113251;27;20110;-65
2023/08/04 03:57:18;;;;;;;2.85;2.00;;;14.90;99.90;;;;;;5144202;27;20038;-64
2023/08/04 03:59:43;;;;;;;5.65;2.40;;;15.00;99.90;;;;;;5133724;27;20134;-65
2023/08/04 04:02:09;;;;;;;4.03;2.33;;;14.90;99.90;;;;;;5115813;27;20023;-64
2023/08/04 04:04:35;;;;;;;3.70;2.30;;;15.00;99.90;;;;;;5114227;27;20114;-65
2023/08/04 04:07:00;;;;;;;4.88;2.08;;;15.00;99.90;;;;;;5113021;27;20114;-65
2023/08/04 04:09:26;;;;;;;6.03;2.22;;;15.00;99.90;;;;;;5124557;27;20042;-65
2023/08/04 04:11:52;;;;;;;5.72;2.40;;;15.00;99.90;;;;;;5126236;27;20034;-64
2023/08/04 04:14:17;;;;;;;3.83;2.58;;;15.00;99.90;;;;;;5113310;27;20066;-65
2023/08/04 04:16:43;;;;;;;4.72;2.40;;;15.00;99.90;;;;;;5128245;27;20456;-64
2023/08/04 04:19:08;;;;;;;4.40;2.40;;;15.00;99.90;;;;;;5133650;27;20034;-65
2023/08/04 04:21:34;;;;;;;3.67;2.15;;;15.00;99.90;;;;;;5123902;27;20083;-65
2023/08/04 04:24:00;;;;;;;4.68;2.50;;;15.00;99.90;;;;;;5120603;27;20039;-64
2023/08/04 04:26:25;;;;;;;4.05;2.50;;;15.00;99.90;;;;;;5127621;27;20490;-64
2023/08/04 04:28:51;;;;;;;4.32;2.47;;;15.00;99.90;;;;;;5122717;27;20516;-66
2023/08/04 04:31:17;;;;;;;4.13;2.10;;;15.00;99.90;;;;;;5149697;27;20031;-65
2023/08/04 04:33:42;;;;;;;4.93;2.38;;;15.10;99.90;;;;;;5130115;27;20498;-64
2023/08/04 04:36:08;;;;;;;3.65;2.17;;;15.10;99.90;;;;;;5124978;27;20090;-64
2023/08/04 04:38:33;;;;;;;3.90;2.22;;;15.10;99.90;;;;;;5135328;27;20087;-65
2023/08/04 04:41:01;;;;;;;3.38;1.73;;;15.10;99.90;;;;;;5119818;27;20039;-66
2023/08/04 04:43:27;;;;;;;4.70;2.00;;;15.10;99.90;;;;;;5128170;27;20030;-64
2023/08/04 04:45:53;;;;;;;4.13;1.92;;;15.10;99.90;;;;;;5135700;27;20057;-65
2023/08/04 04:48:20;;;;;;;4.68;1.95;;;15.10;99.90;;;;;;5127205;27;20407;-65
2023/08/04 04:50:46;;;;;;;5.05;2.10;;;15.20;99.90;;;;;;5116400;27;20050;-65
2023/08/04 04:53:12;;;;;;;2.75;1.90;;;15.10;99.90;;;;;;5117679;27;20126;-65
2023/08/04 04:55:39;;;;;;;2.70;1.60;;;15.20;99.90;;;;;;5136689;27;20135;-64
2023/08/04 04:58:04;;;;;;;4.05;1.98;;;15.20;99.90;;;;;;5124345;27;20092;-65
2023/08/04 05:00:31;;;;;;;4.10;1.83;;;15.20;99.90;;;;;;5122035;27;20035;-64
2023/08/04 05:02:57;;;;;;;3.97;1.75;;;15.20;99.90;;;;;;5116439;27;20570;-64
2023/08/04 05:05:23;;;;;;;4.13;2.05;;;15.20;99.90;;;;;;5116139;27;20043;-65
2023/08/04 05:07:48;;;;;;;1.83;1.67;;;15.20;99.90;;;;;;5135060;27;20069;-65
2023/08/04 05:10:14;;;;;;;3.38;1.88;;;15.20;99.90;;;;;;5099312;27;20040;-65
2023/08/04 05:12:40;;;;;;;2.80;1.48;;;15.30;99.90;;;;;;5116954;27;20050;-65
2023/08/04 05:15:06;;;;;;;2.40;1.60;;;15.30;99.90;;;;;;5116493;27;20172;-65
2023/08/04 05:17:32;;;;;;;4.32;1.80;;;15.30;99.90;;;;;;5116326;27;20047;-65
2023/08/04 05:19:57;;;;;;;1.98;1.38;;;15.30;99.90;;;;;;5116605;27;20489;-65
2023/08/04 05:22:23;;;;;;;3.47;1.40;;;15.30;99.90;;;;;;5134539;27;20046;-64
2023/08/04 05:24:48;;;;;;;3.83;1.20;;;15.40;99.90;;;;;;5137291;27;20045;-65
2023/08/04 05:27:14;;;;;;;2.55;1.20;;;15.40;99.90;;;;;;5136619;27;20067;-65
2023/08/04 05:29:40;;;;;;;3.75;1.48;;;15.40;99.90;;;;;;5136733;27;20471;-64
2023/08/04 05:32:06;;;;;;;4.00;1.30;;;15.40;99.90;;;;;;5136443;27;20106;-64
2023/08/04 05:34:32;;;;;;;3.78;1.05;;;15.50;99.90;;;;;;5136705;27;20046;-65
2023/08/04 05:36:57;;;;;;;1.88;0.88;;;15.50;99.90;;;;;;5136872;27;20047;-65
2023/08/04 05:39:23;;;;;;;1.80;1.05;;;15.60;99.90;;;;;;5136464;27;20038;-65
2023/08/04 05:41:49;;;;;;;1.83;1.10;;;15.50;99.90;;;;;;5155179;27;20039;-65
2023/08/04 05:44:15;;;;;;;1.35;0.98;;;15.60;99.90;;;;;;5136363;27;20456;-65
2023/08/04 05:46:40;;;;;;;2.60;1.00;;;15.60;99.90;;;;;;5135905;27;20037;-65
2023/08/04 05:49:06;;;;;;;2.00;1.00;;;15.70;99.90;;;;;;5136412;27;20423;-64
2023/08/04 05:51:32;;;;;;;2.75;1.00;;;15.70;99.90;;;;;;5136097;27;20043;-65
2023/08/04 05:53:58;;;;;;;1.80;1.02;;;15.80;99.90;;;;;;5136795;27;20074;-65
2023/08/04 05:56:23;;;;;;;3.97;1.20;;;15.90;99.90;;;;;;5136006;27;20031;-65
2023/08/04 05:58:49;;;;;;;1.67;0.90;;;15.90;99.90;;;;;;5136121;27;20042;-65
2023/08/04 06:01:15;;;;;;;2.05;1.00;;;16.00;99.90;;;;;;5136311;27;20102;-64
2023/08/04 06:03:40;;;;;;;2.05;0.88;;;16.00;99.90;;;;;;5135970;27;20100;-65
2023/08/04 06:06:06;;;;;;;1.90;0.80;;;16.10;99.90;;;;;;5136324;27;20378;-65
2023/08/04 06:08:31;;;;;;;1.85;1.10;;;16.10;99.90;;;;;;5154822;27;20038;-65
2023/08/04 06:10:58;;;;;;;2.80;0.93;;;16.10;99.90;;;;;;5136498;27;20068;-64
2023/08/04 06:13:24;;;;;;;1.88;1.15;;;16.20;99.90;;;;;;5135858;27;20047;-65
2023/08/04 06:15:49;;;;;;;4.20;1.00;;;16.30;99.90;;;;;;5129460;27;20051;-65
2023/08/04 06:18:15;;;;;;;2.17;0.88;;;16.30;99.90;;;;;;5115557;27;20472;-65
2023/08/04 06:20:41;;;;;;;2.80;1.00;;;16.40;99.90;;;;;;5117383;27;20039;-65
2023/08/04 06:23:06;;;;;;;4.50;1.10;;;16.40;99.90;;;;;;5132108;27;20047;-65
2023/08/04 06:25:32;;;;;;;2.65;1.00;;;16.40;99.90;;;;;;5132102;27;20067;-65
2023/08/04 06:27:59;;;;;;;3.70;1.33;;;16.50;99.90;;;;;;5132682;27;20054;-65
2023/08/04 06:30:25;;;;;;;3.20;1.30;;;16.50;99.90;;;;;;5132116;27;20035;-65
2023/08/04 06:32:51;;;;;;;2.08;1.20;;;16.50;99.90;;;;;;5131703;27;20485;-65
2023/08/04 06:35:17;;;;;;;2.50;1.58;;;16.60;99.90;;;;;;5119319;27;20040;-65
2023/08/04 06:37:43;;;;;;;1.83;1.00;;;16.60;99.90;;;;;;5111705;28;20375;-65
2023/08/04 06:40:09;;;;;;;2.45;1.20;;;16.60;99.90;;;;;;5110865;28;20047;-66
2023/08/04 06:42:35;;;;;;;2.78;1.38;;;16.60;99.90;;;;;;5093494;28;20032;-65
2023/08/04 06:45:01;;;;;;;3.45;1.40;;;16.60;99.90;;;;;;5110824;28;20470;-64
2023/08/04 06:47:27;;;;;;;1.50;1.20;;;16.60;99.90;;;;;;5110696;28;20078;-65
2023/08/04 06:49:53;;;;;;;4.20;1.40;;;16.60;99.90;;;;;;5110044;28;20566;-65
2023/08/04 06:52:18;;;;;;;3.17;1.25;;;16.60;99.90;;;;;;5110548;28;20486;-65
2023/08/04 06:54:44;;;;;;;1.95;1.10;;;16.60;99.90;;;;;;5110108;27;20058;-65
2023/08/04 06:57:10;;;;;;;4.43;1.80;;;16.70;99.90;;;;;;5111511;28;20028;-65
2023/08/04 06:59:35;;;;;;;3.15;1.50;;;16.60;99.90;;;;;;5109699;28;20390;-65
2023/08/04 07:02:01;;;;;;;4.13;1.30;;;16.70;99.90;;;;;;5110540;28;20046;-64
2023/08/04 07:04:27;;;;;;;3.10;1.45;;;16.70;99.90;;;;;;5110582;28;20077;-66
2023/08/04 07:06:54;;;;;;;2.42;1.20;;;16.70;99.90;;;;;;5110253;28;20048;-65
2023/08/04 07:09:20;;;;;;;2.33;1.40;;;16.70;99.90;;;;;;5109114;28;20031;-65
2023/08/04 07:11:46;;;;;;;2.47;1.00;;;16.80;99.90;;;;;;5109635;28;20101;-65
2023/08/04 07:14:11;;;;;;;2.00;1.02;;;16.80;99.90;;;;;;5110610;28;20065;-65
2023/08/04 07:16:37;;;;;;;3.30;1.30;;;16.90;99.90;;;;;;5110115;28;20051;-65
2023/08/04 07:19:02;;;;;;;1.08;0.90;;;16.80;99.90;;;;;;5116968;27;20065;-66
2023/08/04 07:21:28;;;;;;;3.08;1.20;;;16.90;99.90;;;;;;5112340;27;20040;-64
2023/08/04 07:23:54;;;;;;;2.13;1.40;;;16.80;99.90;;;;;;5121669;27;20456;-65
2023/08/04 07:26:19;;;;;;;3.33;1.27;;;16.80;99.90;;;;;;5123944;27;20035;-65
2023/08/04 07:28:45;;;;;;;4.95;1.70;;;16.80;99.90;;;;;;5119474;27;20042;-64
2023/08/04 07:31:11;;;;;;;3.67;1.60;;;16.90;99.90;;;;;;5122246;27;20035;-65
2023/08/04 07:33:37;;;;;;;3.67;1.60;;;16.90;99.90;;;;;;5122777;27;20031;-66
2023/08/04 07:36:04;;;;;;;2.22;1.10;;;16.90;99.90;;;;;;5123259;27;20046;-65
2023/08/04 07:38:30;;;;;;;2.75;1.55;;;16.90;99.90;;;;;;5122308;27;20039;-65
2023/08/04 07:40:56;;;;;;;3.50;1.40;;;16.80;99.90;;;;;;5120246;27;20115;-65
2023/08/04 07:43:23;;;;;;;3.80;1.30;;;16.70;99.90;;;;;;5132029;27;20043;-65
2023/08/04 07:45:49;;;;;;;3.33;1.30;;;16.80;99.90;;;;;;5128928;27;20065;-65
2023/08/04 07:48:15;;;;;;;2.67;1.30;;;16.80;99.90;;;;;;5113808;27;20035;-66
2023/08/04 07:50:45;;;;;;;3.47;1.27;;;16.80;99.90;;;;;;5115284;27;20050;-65
2023/08/04 07:53:10;;;;;;;2.20;1.30;;;16.80;99.90;;;;;;5118629;27;20042;-64
2023/08/04 07:55:36;;;;;;;3.15;1.10;;;16.80;99.90;;;;;;5119321;27;20055;-65
2023/08/04 07:58:11;;;;;;;2.60;1.30;;;16.70;99.90;;;;;;5121804;27;20106;-65
2023/08/04 08:00:37;;;;;;;1.70;1.05;;;16.80;99.90;;;;;;5117426;27;20050;-65
2023/08/04 08:03:02;;;;;;;4.40;1.38;;;16.80;99.90;;;;;;5117912;27;20504;-65
2023/08/04 08:05:28;;;;;;;2.22;1.52;;;16.90;99.90;;;;;;5119237;27;21311;-66
2023/08/04 08:07:54;;;;;;;2.80;1.17;;;17.00;99.90;;;;;;5133715;27;20035;-65
2023/08/04 08:10:20;;;;;;;2.13;1.23;;;17.10;99.90;;;;;;5134042;27;20050;-65
2023/08/04 08:12:45;;;;;;;1.45;0.90;;;17.10;99.90;;;;;;5126478;27;20030;-65
2023/08/04 08:15:11;;;;;;;1.77;1.05;;;17.20;99.90;;;;;;5125302;27;20054;-64
2023/08/04 08:17:37;;;;;;;4.00;1.13;;;17.30;99.90;;;;;;5123299;27;20035;-65
2023/08/04 08:20:04;;;;;;;1.42;1.20;;;17.40;99.90;;;;;;5113639;27;20043;-65
2023/08/04 08:22:30;;;;;;;2.70;1.20;;;17.50;99.90;;;;;;5114094;27;20051;-65
2023/08/04 08:24:56;;;;;;;2.83;0.98;;;17.80;99.90;;;;;;5116561;27;20055;-65
2023/08/04 08:27:23;;;;;;;3.15;0.82;;;18.10;99.90;;;;;;5118280;27;20042;-64
2023/08/04 08:29:53;;;;;;;2.10;1.00;;;18.30;99.90;;;;;;5101780;27;20063;-65
2023/08/04 08:32:18;;;;;;;1.38;0.80;;;18.60;99.90;;;;;;5124512;27;20460;-65
2023/08/04 08:34:44;;;;;;;2.90;0.90;;;18.90;99.90;;;;;;5150517;27;20122;-66
2023/08/04 08:37:09;;;;;;;2.65;1.00;;;19.20;99.90;;;;;;5136829;27;20145;-65
2023/08/04 08:39:35;;;;;;;2.63;1.05;;;19.30;99.90;;;;;;5119493;27;20043;-66
2023/08/04 08:42:01;;;;;;;1.15;1.00;;;19.50;99.90;;;;;;5120154;27;20042;-65
2023/08/04 08:44:26;;;;;;;2.53;0.90;;;19.60;99.90;;;;;;5114766;27;20055;-65
2023/08/04 08:46:52;;;;;;;4.10;1.17;;;19.50;99.90;;;;;;5120387;27;20039;-65
2023/08/04 08:49:23;;;;;;;2.22;1.02;;;19.30;99.90;;;;;;5116514;28;20480;-65
2023/08/04 08:51:51;;;;;;;3.40;1.20;;;19.10;99.90;;;;;;5113200;27;20035;-66
2023/08/04 08:54:18;;;;;;;5.13;1.38;;;18.90;99.90;;;;;;5135922;27;20041;-65
2023/08/04 08:56:44;;;;;;;3.33;1.40;;;18.60;99.90;;;;;;5115555;27;20038;-65
2023/08/04 08:59:09;;;;;;;1.45;1.05;;;18.10;99.90;;;;;;5118175;27;20040;-65
2023/08/04 09:01:35;;;;;;;2.58;1.00;;;17.90;99.90;;;;;;5121114;27;20035;-65
2023/08/04 09:04:01;;;;;;;4.72;1.20;;;17.70;99.90;;;;;;5121482;27;20035;-65
2023/08/04 09:06:27;;;;;;;3.75;1.00;;;17.50;99.90;;;;;;5122914;27;20204;-65
2023/08/04 09:08:54;;;;;;;2.30;0.95;;;17.50;99.90;;;;;;5124044;27;20039;-65
2023/08/04 09:11:20;;;;;;;2.08;1.00;;;17.40;99.90;;;;;;5142793;27;20031;-65
2023/08/04 09:13:46;;;;;;;2.13;1.00;;;17.40;99.90;;;;;;5125217;28;20043;-65
2023/08/04 09:16:12;;;;;;;1.75;1.00;;;17.40;99.90;;;;;;5114916;28;20043;-65
2023/08/04 09:18:39;;;;;;;2.83;0.90;;;17.50;99.90;;;;;;5111792;28;20436;-65
2023/08/04 09:21:07;;;;;;;2.88;0.98;;;17.60;99.90;;;;;;5129091;27;20031;-66
2023/08/04 09:23:37;;;;;;;2.35;1.20;;;17.70;99.90;;;;;;5120596;27;20844;-65
2023/08/04 09:26:03;;;;;;;1.33;0.90;;;17.80;99.90;;;;;;5115995;27;20043;-66
2023/08/04 09:28:29;;;;;;;2.22;1.30;;;17.90;99.90;;;;;;5116321;27;20035;-66
2023/08/04 09:31:06;;;;;;;3.08;1.00;;;18.10;99.90;;;;;;5132475;27;20031;-65
2023/08/04 09:33:33;;;;;;;3.17;1.00;;;18.40;99.90;;;;;;5128607;27;20050;-65
2023/08/04 09:36:05;;;;;;;2.17;1.10;;;18.50;99.90;;;;;;5128634;27;20046;-65
2023/08/04 09:38:33;;;;;;;4.03;1.20;;;18.90;99.90;;;;;;5123815;27;20066;-65
2023/08/04 09:41:04;;;;;;;3.38;1.10;;;19.10;99.90;;;;;;5127431;27;20059;-66
2023/08/04 09:43:29;;;;;;;2.60;0.95;;;19.40;99.90;;;;;;5144117;27;20035;-65
2023/08/04 09:46:06;;;;;;;1.88;0.90;;;19.90;99.90;;;;;;5128533;27;20050;-65
2023/08/04 09:48:32;;;;;;;4.38;1.55;;;19.90;99.90;;;;;;5146239;27;20074;-65
2023/08/04 09:51:08;;;;;;;7.20;1.30;;;20.00;99.90;;;;;;5129993;27;20051;-66
2023/08/04 09:53:50;;;;;;;4.03;1.58;;;20.00;99.90;;;;;;5111917;27;20052;-66
2023/08/04 09:56:18;;;;;;;4.68;1.20;;;20.10;99.90;;;;;;5130356;27;20405;-66
2023/08/04 09:58:46;;;;;;;3.20;0.93;;;20.00;99.90;;;;;;5126858;27;20088;-66
2023/08/04 10:01:12;;;;;;;3.58;1.00;;;20.00;99.90;;;;;;5124255;27;20039;-66
2023/08/04 10:03:41;;;;;;;3.15;1.13;;;20.00;99.90;;;;;;5145725;27;20038;-66
2023/08/04 10:06:07;;;;;;;2.13;0.93;;;19.70;99.90;;;;;;5130240;27;20038;-65
2023/08/04 10:08:39;;;;;;;2.83;0.90;;;19.30;99.90;;;;;;5106843;27;20039;-66
2023/08/04 10:11:06;;;;;;;2.55;1.10;;;18.70;99.90;;;;;;5129428;27;20054;-65
2023/08/04 10:13:34;;;;;;;3.63;1.20;;;18.30;99.90;;;;;;5124155;27;20043;-65
2023/08/04 10:16:03;;;;;;;2.83;1.00;;;18.00;99.90;;;;;;5116693;27;20043;-66
2023/08/04 10:18:48;;;;;;;2.47;1.17;;;17.90;99.90;;;;;;5117767;27;20830;-65
2023/08/04 10:21:15;;;;;;;2.72;1.08;;;17.80;99.90;;;;;;5123319;27;20080;-65
2023/08/04 10:23:41;;;;;;;2.25;1.10;;;17.90;99.90;;;;;;5129093;27;20043;-65
2023/08/04 10:26:10;;;;;;;3.55;1.10;;;18.00;99.90;;;;;;5126060;27;20569;-65
2023/08/04 10:29:07;;;;;;;2.28;1.13;;;18.00;99.90;;;;;;5125680;27;20043;-65
2023/08/04 10:31:55;;;;;;;4.25;1.17;;;18.20;99.90;;;;;;5126027;27;20394;-66
2023/08/04 10:34:28;;;;;;;3.40;1.15;;;18.20;99.90;;;;;;5121620;27;20047;-66
2023/08/04 10:37:09;;;;;;;2.95;1.23;;;18.60;99.90;;;;;;5125051;27;20386;-66
2023/08/04 10:39:40;;;;;;;2.60;1.40;;;18.90;99.90;;;;;;5126698;27;20113;-66
2023/08/04 10:42:11;;;;;;;4.55;1.42;;;19.00;99.90;;;;;;5126860;27;20405;-65
2023/08/04 10:44:54;;;;;;;3.47;1.63;;;19.30;99.90;;;;;;5125842;27;20405;-65
2023/08/04 10:47:46;;;;;;;3.00;1.40;;;19.60;99.90;;;;;;5126761;27;20051;-65
2023/08/04 10:50:13;;;;;;;2.27;1.10;;;19.70;99.90;;;;;;5127864;27;20094;-66
2023/08/04 10:52:40;;;;;;;4.53;1.42;;;19.60;99.90;;;;;;5126737;27;20401;-66
2023/08/04 10:55:08;;;;;;;3.40;1.23;;;19.40;99.90;;;;;;5126615;27;20400;-65
2023/08/04 10:57:37;;;;;;;1.85;1.10;;;19.20;99.90;;;;;;5124465;27;20070;-66
2023/08/04 11:00:05;;;;;;;3.45;1.20;;;19.00;99.90;;;;;;5128594;27;20771;-65
2023/08/04 11:02:32;;;;;;;5.28;1.75;;;18.90;99.90;;;;;;5127022;27;20039;-65
2023/08/04 11:04:58;;;;;;;2.70;1.10;;;18.80;99.90;;;;;;5127643;27;20055;-66
2023/08/04 11:07:24;;;;;;;1.65;1.00;;;18.70;99.90;;;;;;5129272;27;20066;-66
2023/08/04 11:09:52;;;;;;;3.15;1.05;;;18.80;99.90;;;;;;5124958;27;20092;-66
2023/08/04 11:12:19;;;;;;;4.30;1.42;;;18.90;99.90;;;;;;5108005;27;20058;-65
2023/08/04 11:14:45;;;;;;;3.67;1.40;;;19.20;99.90;;;;;;5139318;27;20087;-65
2023/08/04 11:17:19;;;;;;;2.30;1.42;;;19.30;99.90;;;;;;5118710;27;20039;-65
2023/08/04 11:19:46;;;;;;;5.00;1.85;;;19.30;99.90;;;;;;5127677;27;20088;-65
2023/08/04 11:22:23;;;;;;;4.20;1.60;;;19.20;99.90;;;;;;5143958;27;20473;-66
2023/08/04 11:24:51;;;;;;;4.38;2.00;;;19.10;99.90;;;;;;5124749;27;20077;-65
2023/08/04 11:27:18;;;;;;;3.78;2.28;;;19.20;99.90;;;;;;5125784;27;20035;-66
2023/08/04 11:29:44;;;;;;;2.47;1.48;;;19.30;99.90;;;;;;5126262;27;20075;-65
2023/08/04 11:32:11;;;;;;;3.35;1.40;;;19.30;99.90;;;;;;5137203;27;20063;-65
2023/08/04 11:34:40;;;;;;;4.30;1.50;;;19.40;99.90;;;;;;5132486;27;20355;-65
2023/08/04 11:37:06;;;;;;;3.15;1.48;;;19.40;99.90;;;;;;5132110;27;20504;-65
2023/08/04 11:39:32;;;;;;;6.25;1.67;;;19.70;99.90;;;;;;5131160;27;20058;-65
2023/08/04 11:41:57;;;;;;;4.13;1.65;;;19.90;99.90;;;;;;5113344;27;20058;-66
2023/08/04 11:44:23;;;;;;;4.13;1.65;;;20.00;99.90;;;;;;5116219;27;20071;-66
2023/08/04 11:46:49;;;;;;;5.00;1.70;;;20.30;99.90;;;;;;5116367;27;20043;-66
2023/08/04 11:49:15;;;;;;;4.35;1.50;;;20.50;99.90;;;;;;5113725;27;20042;-66
2023/08/04 11:51:44;;;;;;;3.47;1.63;;;20.70;99.90;;;;;;5151680;27;20039;-65
2023/08/04 11:54:18;;;;;;;4.03;1.40;;;20.70;99.90;;;;;;5120768;27;20049;-66
2023/08/04 11:56:43;;;;;;;3.72;1.42;;;20.50;99.90;;;;;;5108060;27;20051;-66
2023/08/04 11:59:10;;;;;;;2.97;1.23;;;20.30;99.90;;;;;;5132903;27;20065;-66
2023/08/04 12:01:36;;;;;;;3.90;1.33;;;20.10;99.90;;;;;;5108841;27;20103;-65
2023/08/04 12:04:17;;;;;;;3.75;1.20;;;20.00;99.90;;;;;;5113072;27;20035;-66
2023/08/04 12:06:43;;;;;;;3.17;1.10;;;20.00;99.90;;;;;;5113433;27;20517;-65
2023/08/04 12:09:11;;;;;;;2.65;1.30;;;19.90;99.90;;;;;;5123254;27;20035;-65
2023/08/04 12:11:46;;;;;;;3.33;1.50;;;19.70;99.90;;;;;;5121642;27;20050;-66
2023/08/04 12:14:12;;;;;;;4.95;1.52;;;19.40;99.90;;;;;;5124875;27;20050;-65
2023/08/04 12:16:50;;;;;;;4.28;1.40;;;19.30;99.90;;;;;;5145189;27;20034;-65
2023/08/04 12:19:17;;;;;;;4.25;1.50;;;19.10;99.90;;;;;;5125913;27;20122;-65
2023/08/04 12:21:42;;;;;;;4.93;1.48;;;19.00;99.90;;;;;;5123131;27;20038;-65
2023/08/04 12:24:08;;;;;;;2.80;1.67;;;18.90;99.90;;;;;;5127164;27;20042;-65
2023/08/04 12:26:33;;;;;;;5.13;1.95;;;18.90;99.90;;;;;;5125819;27;20042;-66
2023/08/04 12:28:59;;;;;;;6.07;1.90;;;18.90;99.90;;;;;;5124096;27;20035;-66
2023/08/04 12:31:25;;;;;;;5.65;2.03;;;18.90;99.90;;;;;;5124963;27;20047;-65
2023/08/04 12:33:50;;;;;;;3.58;1.95;;;19.00;99.90;;;;;;5124376;27;20361;-65
2023/08/04 12:36:16;;;;;;;5.18;2.10;;;19.00;99.90;;;;;;5126901;27;20418;-66
2023/08/04 12:38:42;;;;;;;3.85;2.30;;;19.30;99.90;;;;;;5121984;27;20140;-66
2023/08/04 12:41:09;;;;;;;6.28;1.85;;;19.60;99.90;;;;;;5139304;27;20179;-65
2023/08/04 12:43:35;;;;;;;3.03;1.45;;;19.90;99.90;;;;;;5105786;27;20043;-65
2023/08/04 12:46:00;;;;;;;3.47;1.65;;;20.10;99.90;;;;;;5117981;27;20397;-66
2023/08/04 12:48:26;;;;;;;4.47;1.48;;;20.30;99.90;;;;;;5123702;27;20102;-65